sensor_id;sensor_type;location;lat;lon;timestamp;pressure;altitude;pressure_sealevel;temperature;humidity
68859;BME280;55864;49.238;8.092;2022-07-24T00:01:23;99679.25;;;22.77;46.25
68859;BME280;55864;49.238;8.092;2022-07-24T00:03:23;99681.78;;;22.72;46.25
68859;BME280;55864;49.238;8.092;2022-07-24T00:05:24;99682.31;;;22.81;45.87
68859;BME280;55864;49.238;8.092;2022-07-24T00:07:24;99677.25;;;22.73;46.13
68859;BME280;55864;49.238;8.092;2022-07-24T00:09:25;99676.41;;;22.72;46.05
68859;BME280;55864;49.238;8.092;2022-07-24T00:11:25;99672.97;;;22.65;45.95
68859;BME280;55864;49.238;8.092;2022-07-24T00:13:26;99667.75;;;22.70;45.64
68859;BME280;55864;49.238;8.092;2022-07-24T00:15:28;99671.47;;;22.69;46.05
68859;BME280;55864;49.238;8.092;2022-07-24T00:17:29;99669.44;;;22.65;46.18
68859;BME280;55864;49.238;8.092;2022-07-24T00:19:29;99665.09;;;22.64;46.27
68859;BME280;55864;49.238;8.092;2022-07-24T00:21:30;99662.66;;;22.62;45.88
68859;BME280;55864;49.238;8.092;2022-07-24T00:23:30;99662.44;;;22.64;46.55
68859;BME280;55864;49.238;8.092;2022-07-24T00:25:31;99659.38;;;22.60;46.25
68859;BME280;55864;49.238;8.092;2022-07-24T00:27:32;99661.66;;;22.57;46.83
68859;BME280;55864;49.238;8.092;2022-07-24T00:29:32;99656.91;;;22.59;46.91
68859;BME280;55864;49.238;8.092;2022-07-24T00:31:34;99652.16;;;22.61;46.25
68859;BME280;55864;49.238;8.092;2022-07-24T00:33:35;99658.56;;;22.60;46.78
68859;BME280;55864;49.238;8.092;2022-07-24T00:35:35;99654.81;;;22.54;46.14
68859;BME280;55864;49.238;8.092;2022-07-24T00:37:36;99656.72;;;22.54;46.89
68859;BME280;55864;49.238;8.092;2022-07-24T00:39:36;99646.78;;;22.54;46.47
68859;BME280;55864;49.238;8.092;2022-07-24T00:41:37;99642.31;;;22.48;47.43
68859;BME280;55864;49.238;8.092;2022-07-24T00:44:00;99651.81;;;22.44;47.56
68859;BME280;55864;49.238;8.092;2022-07-24T00:46:00;99649.75;;;22.39;47.43
68859;BME280;55864;49.238;8.092;2022-07-24T00:48:03;99648.13;;;22.38;47.38
68859;BME280;55864;49.238;8.092;2022-07-24T00:50:04;99652.44;;;22.39;46.97
68859;BME280;55864;49.238;8.092;2022-07-24T00:52:05;99646.06;;;22.40;47.21
68859;BME280;55864;49.238;8.092;2022-07-24T00:54:07;99649.38;;;22.29;47.83
68859;BME280;55864;49.238;8.092;2022-07-24T00:56:07;99646.09;;;22.34;47.39
68859;BME280;55864;49.238;8.092;2022-07-24T00:58:08;99652.69;;;22.31;47.70
68859;BME280;55864;49.238;8.092;2022-07-24T01:00:10;99651.88;;;22.24;47.93
68859;BME280;55864;49.238;8.092;2022-07-24T01:02:11;99655.19;;;22.26;48.56
68859;BME280;55864;49.238;8.092;2022-07-24T01:04:13;99656.25;;;22.19;48.15
68859;BME280;55864;49.238;8.092;2022-07-24T01:06:14;99662.22;;;22.14;48.01
68859;BME280;55864;49.238;8.092;2022-07-24T01:08:15;99655.63;;;22.17;48.33
68859;BME280;55864;49.238;8.092;2022-07-24T01:10:15;99649.66;;;22.15;48.24
68859;BME280;55864;49.238;8.092;2022-07-24T01:12:16;99656.47;;;22.11;49.05
68859;BME280;55864;49.238;8.092;2022-07-24T01:14:17;99649.50;;;22.10;49.04
68859;BME280;55864;49.238;8.092;2022-07-24T01:16:18;99657.72;;;22.08;49.24
68859;BME280;55864;49.238;8.092;2022-07-24T01:18:19;99657.72;;;22.08;48.84
68859;BME280;55864;49.238;8.092;2022-07-24T01:20:21;99652.78;;;22.05;49.15
68859;BME280;55864;49.238;8.092;2022-07-24T01:22:23;99648.69;;;22.03;48.79
68859;BME280;55864;49.238;8.092;2022-07-24T01:24:23;99646.22;;;22.01;48.89
68859;BME280;55864;49.238;8.092;2022-07-24T01:26:24;99656.28;;;21.99;49.34
68859;BME280;55864;49.238;8.092;2022-07-24T01:28:25;99659.19;;;21.98;49.20
68859;BME280;55864;49.238;8.092;2022-07-24T01:30:25;99654.44;;;22.06;49.34
68859;BME280;55864;49.238;8.092;2022-07-24T01:32:26;99653.00;;;22.04;48.73
68859;BME280;55864;49.238;8.092;2022-07-24T01:34:26;99649.88;;;22.07;48.93
68859;BME280;55864;49.238;8.092;2022-07-24T01:36:27;99653.41;;;22.07;48.55
68859;BME280;55864;49.238;8.092;2022-07-24T01:38:29;99651.94;;;22.05;48.64
68859;BME280;55864;49.238;8.092;2022-07-24T01:40:30;99655.09;;;21.95;49.23
68859;BME280;55864;49.238;8.092;2022-07-24T01:42:30;99648.72;;;21.90;49.26
68859;BME280;55864;49.238;8.092;2022-07-24T01:44:31;99658.59;;;21.83;49.92
68859;BME280;55864;49.238;8.092;2022-07-24T01:46:31;99658.41;;;21.78;49.71
68859;BME280;55864;49.238;8.092;2022-07-24T01:48:32;99655.94;;;21.76;49.68
68859;BME280;55864;49.238;8.092;2022-07-24T01:50:32;99656.34;;;21.73;49.70
68859;BME280;55864;49.238;8.092;2022-07-24T01:52:33;99652.81;;;21.73;49.50
68859;BME280;55864;49.238;8.092;2022-07-24T01:54:35;99658.59;;;21.70;49.89
68859;BME280;55864;49.238;8.092;2022-07-24T01:56:36;99656.53;;;21.65;50.41
68859;BME280;55864;49.238;8.092;2022-07-24T01:58:36;99652.47;;;21.63;50.72
68859;BME280;55864;49.238;8.092;2022-07-24T02:00:37;99658.63;;;21.57;50.98
68859;BME280;55864;49.238;8.092;2022-07-24T02:02:37;99664.19;;;21.48;51.82
68859;BME280;55864;49.238;8.092;2022-07-24T02:04:38;99664.00;;;21.43;52.21
68859;BME280;55864;49.238;8.092;2022-07-24T02:06:39;99661.13;;;21.38;52.98
68859;BME280;55864;49.238;8.092;2022-07-24T02:08:39;99659.47;;;21.37;53.21
68859;BME280;55864;49.238;8.092;2022-07-24T02:10:41;99660.69;;;21.35;52.92
68859;BME280;55864;49.238;8.092;2022-07-24T02:12:42;99663.59;;;21.20;53.83
68859;BME280;55864;49.238;8.092;2022-07-24T02:14:43;99655.97;;;21.24;53.35
68859;BME280;55864;49.238;8.092;2022-07-24T02:16:44;99655.38;;;21.15;53.95
68859;BME280;55864;49.238;8.092;2022-07-24T02:18:44;99659.44;;;20.98;54.67
68859;BME280;55864;49.238;8.092;2022-07-24T02:20:45;99660.84;;;20.94;54.65
68859;BME280;55864;49.238;8.092;2022-07-24T02:22:45;99654.50;;;20.89;55.66
68859;BME280;55864;49.238;8.092;2022-07-24T02:24:46;99665.97;;;20.83;55.21
68859;BME280;55864;49.238;8.092;2022-07-24T02:26:48;99664.34;;;20.82;55.98
68859;BME280;55864;49.238;8.092;2022-07-24T02:28:49;99670.50;;;20.76;55.78
68859;BME280;55864;49.238;8.092;2022-07-24T02:30:49;99672.91;;;20.71;55.62
68859;BME280;55864;49.238;8.092;2022-07-24T02:32:50;99666.16;;;20.68;56.45
68859;BME280;55864;49.238;8.092;2022-07-24T02:34:51;99658.53;;;20.65;55.94
68859;BME280;55864;49.238;8.092;2022-07-24T02:36:51;99664.28;;;20.62;56.27
68859;BME280;55864;49.238;8.092;2022-07-24T02:38:52;99662.63;;;20.61;56.47
68859;BME280;55864;49.238;8.092;2022-07-24T02:40:52;99660.38;;;20.58;56.49
68859;BME280;55864;49.238;8.092;2022-07-24T02:42:54;99667.13;;;20.54;55.81
68859;BME280;55864;49.238;8.092;2022-07-24T02:44:55;99660.16;;;20.53;55.83
68859;BME280;55864;49.238;8.092;2022-07-24T02:46:55;99660.78;;;20.55;55.71
68859;BME280;55864;49.238;8.092;2022-07-24T02:48:56;99664.63;;;20.46;55.94
68859;BME280;55864;49.238;8.092;2022-07-24T02:50:57;99671.44;;;20.48;56.16
68859;BME280;55864;49.238;8.092;2022-07-24T02:52:57;99666.47;;;20.39;56.81
68859;BME280;55864;49.238;8.092;2022-07-24T02:54:58;99673.63;;;20.32;57.65
68859;BME280;55864;49.238;8.092;2022-07-24T02:56:58;99672.22;;;20.36;56.92
68859;BME280;55864;49.238;8.092;2022-07-24T02:59:00;99671.59;;;20.34;57.47
68859;BME280;55864;49.238;8.092;2022-07-24T03:01:01;99678.13;;;20.25;56.84
68859;BME280;55864;49.238;8.092;2022-07-24T03:03:01;99673.78;;;20.24;57.18
68859;BME280;55864;49.238;8.092;2022-07-24T03:05:04;99679.72;;;20.19;57.12
68859;BME280;55864;49.238;8.092;2022-07-24T03:07:05;99674.38;;;20.19;57.48
68859;BME280;55864;49.238;8.092;2022-07-24T03:09:05;99684.16;;;20.12;57.09
68859;BME280;55864;49.238;8.092;2022-07-24T03:11:06;99674.34;;;20.13;57.04
68859;BME280;55864;49.238;8.092;2022-07-24T03:13:07;99677.41;;;20.10;57.65
68859;BME280;55864;49.238;8.092;2022-07-24T03:15:12;99675.94;;;20.07;57.41
68859;BME280;55864;49.238;8.092;2022-07-24T03:17:13;99675.31;;;20.05;57.69
68859;BME280;55864;49.238;8.092;2022-07-24T03:19:14;99682.50;;;20.05;57.46
68859;BME280;55864;49.238;8.092;2022-07-24T03:21:15;99681.44;;;19.99;57.79
68859;BME280;55864;49.238;8.092;2022-07-24T03:23:16;99676.53;;;20.03;57.20
68859;BME280;55864;49.238;8.092;2022-07-24T03:25:17;99672.78;;;19.91;57.44
68859;BME280;55864;49.238;8.092;2022-07-24T03:27:18;99673.78;;;19.90;57.40
68859;BME280;55864;49.238;8.092;2022-07-24T03:29:18;99675.41;;;19.84;57.79
68859;BME280;55864;49.238;8.092;2022-07-24T03:31:20;99680.38;;;19.94;57.34
68859;BME280;55864;49.238;8.092;2022-07-24T03:33:21;99676.88;;;19.87;57.70
68859;BME280;55864;49.238;8.092;2022-07-24T03:35:21;99678.91;;;19.85;57.99
68859;BME280;55864;49.238;8.092;2022-07-24T03:37:22;99677.84;;;19.79;57.90
68859;BME280;55864;49.238;8.092;2022-07-24T03:39:23;99676.59;;;19.82;57.72
68859;BME280;55864;49.238;8.092;2022-07-24T03:41:23;99675.56;;;19.76;57.99
68859;BME280;55864;49.238;8.092;2022-07-24T03:43:24;99678.63;;;19.73;57.45
68859;BME280;55864;49.238;8.092;2022-07-24T03:45:24;99674.06;;;19.67;57.74
68859;BME280;55864;49.238;8.092;2022-07-24T03:47:26;99675.09;;;19.66;57.69
68859;BME280;55864;49.238;8.092;2022-07-24T03:49:27;99675.94;;;19.73;57.40
68859;BME280;55864;49.238;8.092;2022-07-24T03:51:27;99686.38;;;19.68;57.99
68859;BME280;55864;49.238;8.092;2022-07-24T03:53:28;99677.94;;;19.64;58.11
68859;BME280;55864;49.238;8.092;2022-07-24T03:55:28;99676.28;;;19.63;58.20
68859;BME280;55864;49.238;8.092;2022-07-24T03:57:29;99681.41;;;19.58;58.29
68859;BME280;55864;49.238;8.092;2022-07-24T03:59:30;99683.66;;;19.61;58.00
68859;BME280;55864;49.238;8.092;2022-07-24T04:01:30;99677.94;;;19.64;57.77
68859;BME280;55864;49.238;8.092;2022-07-24T04:03:32;99684.50;;;19.62;58.73
68859;BME280;55864;49.238;8.092;2022-07-24T04:05:33;99671.78;;;19.64;58.68
68859;BME280;55864;49.238;8.092;2022-07-24T04:07:34;99669.72;;;19.59;58.99
68859;BME280;55864;49.238;8.092;2022-07-24T04:09:34;99680.38;;;19.59;58.96
68859;BME280;55864;49.238;8.092;2022-07-24T04:11:35;99679.09;;;19.55;59.79
68859;BME280;55864;49.238;8.092;2022-07-24T04:13:36;99679.41;;;19.67;59.09
68859;BME280;55864;49.238;8.092;2022-07-24T04:15:36;99690.25;;;19.65;58.53
68859;BME280;55864;49.238;8.092;2022-07-24T04:17:38;99692.72;;;19.67;58.71
68859;BME280;55864;49.238;8.092;2022-07-24T04:19:40;99689.63;;;19.63;59.38
68859;BME280;55864;49.238;8.092;2022-07-24T04:21:40;99698.66;;;19.62;59.08
68859;BME280;55864;49.238;8.092;2022-07-24T04:23:41;99697.38;;;19.58;58.64
68859;BME280;55864;49.238;8.092;2022-07-24T04:25:42;99691.22;;;19.58;58.58
68859;BME280;55864;49.238;8.092;2022-07-24T04:27:42;99692.00;;;19.52;59.25
68859;BME280;55864;49.238;8.092;2022-07-24T04:29:43;99696.94;;;19.55;59.33
68859;BME280;55864;49.238;8.092;2022-07-24T04:31:43;99692.84;;;19.59;58.91
68859;BME280;55864;49.238;8.092;2022-07-24T04:33:44;99700.28;;;19.63;59.22
68859;BME280;55864;49.238;8.092;2022-07-24T04:35:46;99702.53;;;19.60;59.47
68859;BME280;55864;49.238;8.092;2022-07-24T04:37:46;99698.47;;;19.64;59.36
68859;BME280;55864;49.238;8.092;2022-07-24T04:39:47;99694.31;;;19.61;59.56
68859;BME280;55864;49.238;8.092;2022-07-24T04:41:48;99696.75;;;19.56;59.88
68859;BME280;55864;49.238;8.092;2022-07-24T04:43:48;99693.56;;;19.67;60.18
68859;BME280;55864;49.238;8.092;2022-07-24T04:45:49;99699.44;;;19.63;59.59
68859;BME280;55864;49.238;8.092;2022-07-24T04:47:49;99703.00;;;19.70;59.59
68859;BME280;55864;49.238;8.092;2022-07-24T04:49:50;99703.63;;;19.72;59.54
68859;BME280;55864;49.238;8.092;2022-07-24T04:51:52;99700.78;;;19.74;59.83
68859;BME280;55864;49.238;8.092;2022-07-24T04:53:52;99703.63;;;19.72;59.50
68859;BME280;55864;49.238;8.092;2022-07-24T04:55:53;99696.50;;;19.79;59.35
68859;BME280;55864;49.238;8.092;2022-07-24T04:57:53;99706.78;;;19.82;59.24
68859;BME280;55864;49.238;8.092;2022-07-24T04:59:54;99707.81;;;19.81;59.35
68859;BME280;55864;49.238;8.092;2022-07-24T05:01:55;99707.00;;;19.87;58.47
68859;BME280;55864;49.238;8.092;2022-07-24T05:03:56;99710.06;;;19.84;58.88
68859;BME280;55864;49.238;8.092;2022-07-24T05:05:56;99703.38;;;19.95;59.30
68859;BME280;55864;49.238;8.092;2022-07-24T05:07:58;99709.78;;;20.07;58.97
68859;BME280;55864;49.238;8.092;2022-07-24T05:09:58;99707.19;;;20.13;59.30
68859;BME280;55864;49.238;8.092;2022-07-24T05:11:59;99713.28;;;20.07;59.32
68859;BME280;55864;49.238;8.092;2022-07-24T05:14:00;99708.78;;;20.08;59.12
68859;BME280;55864;49.238;8.092;2022-07-24T05:16:00;99712.50;;;20.13;58.79
68859;BME280;55864;49.238;8.092;2022-07-24T05:18:01;99709.91;;;20.20;58.95
68859;BME280;55864;49.238;8.092;2022-07-24T05:20:02;99720.38;;;20.21;59.70
68859;BME280;55864;49.238;8.092;2022-07-24T05:22:03;99711.00;;;20.32;59.78
68859;BME280;55864;49.238;8.092;2022-07-24T05:24:06;99719.84;;;20.39;59.68
68859;BME280;55864;49.238;8.092;2022-07-24T05:26:06;99711.88;;;20.52;58.88
68859;BME280;55864;49.238;8.092;2022-07-24T05:28:07;99711.50;;;20.55;58.66
68859;BME280;55864;49.238;8.092;2022-07-24T05:30:08;99720.56;;;20.67;59.00
68859;BME280;55864;49.238;8.092;2022-07-24T05:32:09;99719.56;;;20.75;58.15
68859;BME280;55864;49.238;8.092;2022-07-24T05:34:10;99718.75;;;20.74;58.00
68859;BME280;55864;49.238;8.092;2022-07-24T05:36:11;99709.53;;;20.83;57.48
68859;BME280;55864;49.238;8.092;2022-07-24T05:38:11;99710.78;;;20.87;57.76
68859;BME280;55864;49.238;8.092;2022-07-24T05:40:13;99714.28;;;20.94;57.87
68859;BME280;55864;49.238;8.092;2022-07-24T05:42:14;99715.13;;;21.01;58.56
68859;BME280;55864;49.238;8.092;2022-07-24T05:44:14;99716.19;;;21.07;57.17
68859;BME280;55864;49.238;8.092;2022-07-24T05:46:15;99711.69;;;21.14;56.41
68859;BME280;55864;49.238;8.092;2022-07-24T05:48:15;99706.34;;;21.14;56.57
68859;BME280;55864;49.238;8.092;2022-07-24T05:50:16;99717.03;;;21.20;57.50
68859;BME280;55864;49.238;8.092;2022-07-24T05:52:17;99713.94;;;21.30;56.95
68859;BME280;55864;49.238;8.092;2022-07-24T05:54:17;99708.41;;;21.31;57.20
68859;BME280;55864;49.238;8.092;2022-07-24T05:56:19;99715.59;;;21.37;56.60
68859;BME280;55864;49.238;8.092;2022-07-24T05:58:20;99716.81;;;21.35;55.54
68859;BME280;55864;49.238;8.092;2022-07-24T06:00:21;99723.81;;;21.36;55.62
68859;BME280;55864;49.238;8.092;2022-07-24T06:02:21;99724.25;;;21.52;55.22
68859;BME280;55864;49.238;8.092;2022-07-24T06:04:22;99721.56;;;21.52;55.42
68859;BME280;55864;49.238;8.092;2022-07-24T06:06:22;99723.00;;;21.68;54.51
68859;BME280;55864;49.238;8.092;2022-07-24T06:08:23;99719.09;;;21.58;54.43
68859;BME280;55864;49.238;8.092;2022-07-24T06:10:24;99724.63;;;21.69;53.54
68859;BME280;55864;49.238;8.092;2022-07-24T06:12:26;99716.63;;;21.69;54.41
68859;BME280;55864;49.238;8.092;2022-07-24T06:14:30;99717.00;;;21.73;54.13
68859;BME280;55864;49.238;8.092;2022-07-24T06:16:30;99714.78;;;21.70;54.53
68859;BME280;55864;49.238;8.092;2022-07-24T06:18:31;99717.66;;;21.68;53.66
68859;BME280;55864;49.238;8.092;2022-07-24T06:20:32;99720.31;;;21.75;53.62
68859;BME280;55864;49.238;8.092;2022-07-24T06:22:32;99721.97;;;21.82;53.22
68859;BME280;55864;49.238;8.092;2022-07-24T06:24:33;99717.69;;;21.88;53.32
68859;BME280;55864;49.238;8.092;2022-07-24T06:26:34;99722.38;;;21.92;53.36
68859;BME280;55864;49.238;8.092;2022-07-24T06:28:36;99721.16;;;21.95;52.45
68859;BME280;55864;49.238;8.092;2022-07-24T06:30:36;99712.91;;;21.96;52.21
68859;BME280;55864;49.238;8.092;2022-07-24T06:32:37;99719.91;;;22.04;51.44
68859;BME280;55864;49.238;8.092;2022-07-24T06:34:37;99721.75;;;22.10;51.62
68859;BME280;55864;49.238;8.092;2022-07-24T06:36:38;99718.41;;;22.21;51.92
68859;BME280;55864;49.238;8.092;2022-07-24T06:38:38;99722.94;;;22.27;52.45
68859;BME280;55864;49.238;8.092;2022-07-24T06:40:39;99722.28;;;22.31;52.17
68859;BME280;55864;49.238;8.092;2022-07-24T06:42:40;99726.38;;;22.40;50.98
68859;BME280;55864;49.238;8.092;2022-07-24T06:44:41;99719.38;;;22.39;51.17
68859;BME280;55864;49.238;8.092;2022-07-24T06:48:42;99717.06;;;22.63;51.39
68859;BME280;55864;49.238;8.092;2022-07-24T06:50:43;99719.69;;;22.69;51.19
68859;BME280;55864;49.238;8.092;2022-07-24T06:52:43;99722.13;;;22.77;51.75
68859;BME280;55864;49.238;8.092;2022-07-24T06:54:44;99722.94;;;22.78;50.57
68859;BME280;55864;49.238;8.092;2022-07-24T06:56:45;99727.88;;;22.81;51.17
68859;BME280;55864;49.238;8.092;2022-07-24T06:58:45;99728.69;;;22.81;50.40
68859;BME280;55864;49.238;8.092;2022-07-24T07:00:48;99731.91;;;22.96;50.16
68859;BME280;55864;49.238;8.092;2022-07-24T07:02:48;99728.53;;;23.07;50.08
68859;BME280;55864;49.238;8.092;2022-07-24T07:04:49;99729.84;;;22.98;50.65
68859;BME280;55864;49.238;8.092;2022-07-24T07:06:50;99729.28;;;22.90;50.78
68859;BME280;55864;49.238;8.092;2022-07-24T07:08:50;99728.91;;;22.80;51.28
68859;BME280;55864;49.238;8.092;2022-07-24T07:10:51;99727.31;;;23.03;50.90
68859;BME280;55864;49.238;8.092;2022-07-24T07:12:51;99730.22;;;23.02;50.85
68859;BME280;55864;49.238;8.092;2022-07-24T07:14:52;99726.69;;;23.08;50.34
68859;BME280;55864;49.238;8.092;2022-07-24T07:16:54;99727.53;;;23.08;50.46
68859;BME280;55864;49.238;8.092;2022-07-24T07:18:54;99723.69;;;23.22;49.93
68859;BME280;55864;49.238;8.092;2022-07-24T07:20:55;99727.19;;;23.23;49.76
68859;BME280;55864;49.238;8.092;2022-07-24T07:22:55;99728.59;;;23.32;49.44
68859;BME280;55864;49.238;8.092;2022-07-24T07:24:56;99723.66;;;23.29;50.14
68859;BME280;55864;49.238;8.092;2022-07-24T07:26:56;99718.09;;;23.30;50.08
68859;BME280;55864;49.238;8.092;2022-07-24T07:28:57;99718.50;;;23.34;50.62
68859;BME280;55864;49.238;8.092;2022-07-24T07:30:58;99718.19;;;23.49;49.56
68859;BME280;55864;49.238;8.092;2022-07-24T07:32:59;99719.69;;;23.63;49.02
68859;BME280;55864;49.238;8.092;2022-07-24T07:35:00;99712.63;;;23.44;50.49
68859;BME280;55864;49.238;8.092;2022-07-24T07:37:01;99714.44;;;23.50;49.47
68859;BME280;55864;49.238;8.092;2022-07-24T07:39:02;99708.44;;;23.54;49.56
68859;BME280;55864;49.238;8.092;2022-07-24T07:41:02;99715.78;;;23.65;49.86
68859;BME280;55864;49.238;8.092;2022-07-24T07:43:03;99709.41;;;23.84;48.84
68859;BME280;55864;49.238;8.092;2022-07-24T07:45:04;99711.34;;;23.95;48.38
68859;BME280;55864;49.238;8.092;2022-07-24T07:47:05;99720.28;;;23.89;48.42
68859;BME280;55864;49.238;8.092;2022-07-24T07:49:07;99715.50;;;23.91;48.26
68859;BME280;55864;49.238;8.092;2022-07-24T07:51:08;99718.44;;;23.90;48.01
68859;BME280;55864;49.238;8.092;2022-07-24T07:53:08;99717.66;;;23.83;48.83
68859;BME280;55864;49.238;8.092;2022-07-24T07:55:09;99716.50;;;23.97;48.51
68859;BME280;55864;49.238;8.092;2022-07-24T07:57:09;99717.59;;;24.14;48.47
68859;BME280;55864;49.238;8.092;2022-07-24T07:59:10;99722.34;;;24.12;47.86
68859;BME280;55864;49.238;8.092;2022-07-24T08:01:11;99721.69;;;24.35;47.77
68859;BME280;55864;49.238;8.092;2022-07-24T08:03:11;99722.66;;;24.58;47.02
68859;BME280;55864;49.238;8.092;2022-07-24T08:05:13;99720.50;;;24.49;47.47
68859;BME280;55864;49.238;8.092;2022-07-24T08:07:14;99716.69;;;24.56;46.83
68859;BME280;55864;49.238;8.092;2022-07-24T08:09:14;99716.50;;;24.69;46.98
68859;BME280;55864;49.238;8.092;2022-07-24T08:11:15;99715.66;;;24.87;47.26
68859;BME280;55864;49.238;8.092;2022-07-24T08:13:15;99711.34;;;24.86;47.13
68859;BME280;55864;49.238;8.092;2022-07-24T08:15:16;99710.69;;;25.02;46.60
68859;BME280;55864;49.238;8.092;2022-07-24T08:17:16;99707.56;;;25.05;45.90
68859;BME280;55864;49.238;8.092;2022-07-24T08:19:17;99712.06;;;25.34;45.50
68859;BME280;55864;49.238;8.092;2022-07-24T08:21:19;99707.16;;;25.31;45.55
68859;BME280;55864;49.238;8.092;2022-07-24T08:23:19;99709.19;;;25.70;45.36
68859;BME280;55864;49.238;8.092;2022-07-24T08:25:20;99710.16;;;25.53;45.12
68859;BME280;55864;49.238;8.092;2022-07-24T08:27:20;99705.00;;;25.63;45.23
68859;BME280;55864;49.238;8.092;2022-07-24T08:29:21;99707.47;;;25.64;45.25
68859;BME280;55864;49.238;8.092;2022-07-24T08:31:22;99715.44;;;26.05;44.18
68859;BME280;55864;49.238;8.092;2022-07-24T08:33:22;99704.50;;;26.35;44.38
68859;BME280;55864;49.238;8.092;2022-07-24T08:35:23;99711.13;;;26.56;43.67
68859;BME280;55864;49.238;8.092;2022-07-24T08:37:25;99705.25;;;26.59;42.72
68859;BME280;55864;49.238;8.092;2022-07-24T08:39:25;99710.78;;;26.52;43.40
68859;BME280;55864;49.238;8.092;2022-07-24T08:41:30;99701.09;;;26.79;42.99
68859;BME280;55864;49.238;8.092;2022-07-24T08:43:31;99703.91;;;27.01;42.02
68859;BME280;55864;49.238;8.092;2022-07-24T08:45:34;99702.91;;;27.19;41.24
68859;BME280;55864;49.238;8.092;2022-07-24T08:47:37;99703.72;;;27.19;41.15
68859;BME280;55864;49.238;8.092;2022-07-24T08:49:39;99704.34;;;27.38;40.43
68859;BME280;55864;49.238;8.092;2022-07-24T08:51:42;99705.41;;;27.53;40.64
68859;BME280;55864;49.238;8.092;2022-07-24T08:53:45;99704.25;;;27.49;40.63
68859;BME280;55864;49.238;8.092;2022-07-24T08:55:45;99705.81;;;27.95;39.78
68859;BME280;55864;49.238;8.092;2022-07-24T08:57:46;99697.09;;;28.10;39.17
68859;BME280;55864;49.238;8.092;2022-07-24T08:59:46;99696.78;;;28.06;38.67
68859;BME280;55864;49.238;8.092;2022-07-24T09:01:48;99697.25;;;28.03;39.27
68859;BME280;55864;49.238;8.092;2022-07-24T09:03:49;99700.28;;;28.28;38.77
68859;BME280;55864;49.238;8.092;2022-07-24T09:05:53;99699.44;;;28.44;38.33
68859;BME280;55864;49.238;8.092;2022-07-24T09:08:09;99698.41;;;28.72;37.75
68859;BME280;55864;49.238;8.092;2022-07-24T09:10:15;99696.34;;;29.06;37.09
68859;BME280;55864;49.238;8.092;2022-07-24T09:12:17;99693.69;;;29.11;37.25
68859;BME280;55864;49.238;8.092;2022-07-24T09:14:17;99689.72;;;29.50;37.01
68859;BME280;55864;49.238;8.092;2022-07-24T09:16:18;99692.47;;;29.92;36.16
68859;BME280;55864;49.238;8.092;2022-07-24T09:18:27;99689.00;;;30.01;35.62
68859;BME280;55864;49.238;8.092;2022-07-24T09:20:28;99683.16;;;29.78;35.99
68859;BME280;55864;49.238;8.092;2022-07-24T09:22:34;99681.00;;;29.80;36.13
68859;BME280;55864;49.238;8.092;2022-07-24T09:24:35;99676.47;;;30.42;35.50
68859;BME280;55864;49.238;8.092;2022-07-24T09:26:44;99681.63;;;30.38;34.85
68859;BME280;55864;49.238;8.092;2022-07-24T09:28:47;99680.00;;;30.37;35.21
68859;BME280;55864;49.238;8.092;2022-07-24T09:30:48;99677.38;;;30.68;34.05
68859;BME280;55864;49.238;8.092;2022-07-24T09:32:52;99674.63;;;30.57;35.05
68859;BME280;55864;49.238;8.092;2022-07-24T09:34:53;99683.00;;;30.51;34.54
68859;BME280;55864;49.238;8.092;2022-07-24T09:36:55;99673.34;;;30.85;33.96
68859;BME280;55864;49.238;8.092;2022-07-24T09:38:57;99675.53;;;30.83;34.38
68859;BME280;55864;49.238;8.092;2022-07-24T09:40:58;99673.13;;;31.22;33.46
68859;BME280;55864;49.238;8.092;2022-07-24T09:43:18;99682.13;;;31.47;32.44
68859;BME280;55864;49.238;8.092;2022-07-24T09:45:19;99671.22;;;31.12;33.91
68859;BME280;55864;49.238;8.092;2022-07-24T09:47:20;99676.13;;;31.71;32.15
68859;BME280;55864;49.238;8.092;2022-07-24T09:49:21;99673.16;;;31.62;32.73
68859;BME280;55864;49.238;8.092;2022-07-24T09:51:22;99673.41;;;31.56;32.85
68859;BME280;55864;49.238;8.092;2022-07-24T09:53:25;99673.72;;;31.39;32.89
68859;BME280;55864;49.238;8.092;2022-07-24T09:55:26;99672.63;;;31.60;32.56
68859;BME280;55864;49.238;8.092;2022-07-24T09:57:28;99676.69;;;31.68;31.96
68859;BME280;55864;49.238;8.092;2022-07-24T09:59:31;99674.25;;;31.46;32.73
68859;BME280;55864;49.238;8.092;2022-07-24T10:01:35;99661.19;;;31.68;32.32
68859;BME280;55864;49.238;8.092;2022-07-24T10:03:40;99661.22;;;31.48;33.19
68859;BME280;55864;49.238;8.092;2022-07-24T10:05:42;99667.00;;;32.25;31.97
68859;BME280;55864;49.238;8.092;2022-07-24T10:07:47;99666.75;;;32.22;31.94
68859;BME280;55864;49.238;8.092;2022-07-24T10:09:49;99658.78;;;32.51;31.17
68859;BME280;55864;49.238;8.092;2022-07-24T10:11:52;99668.06;;;32.50;31.61
68859;BME280;55864;49.238;8.092;2022-07-24T10:13:56;99661.97;;;32.63;30.93
68859;BME280;55864;49.238;8.092;2022-07-24T10:16:29;99655.19;;;31.96;31.50
68859;BME280;55864;49.238;8.092;2022-07-24T10:18:36;99658.72;;;32.61;30.59
68859;BME280;55864;49.238;8.092;2022-07-24T10:20:44;99666.34;;;32.59;30.83
68859;BME280;55864;49.238;8.092;2022-07-24T10:22:56;99665.31;;;32.50;30.75
68859;BME280;55864;49.238;8.092;2022-07-24T10:25:04;99659.16;;;32.14;30.23
68859;BME280;55864;49.238;8.092;2022-07-24T10:27:11;99664.63;;;32.19;30.17
68859;BME280;55864;49.238;8.092;2022-07-24T10:29:16;99656.47;;;32.73;29.84
68859;BME280;55864;49.238;8.092;2022-07-24T10:31:18;99653.81;;;32.63;29.97
68859;BME280;55864;49.238;8.092;2022-07-24T10:33:21;99656.97;;;32.80;29.37
68859;BME280;55864;49.238;8.092;2022-07-24T10:35:23;99657.03;;;32.70;28.83
68859;BME280;55864;49.238;8.092;2022-07-24T10:37:28;99658.66;;;32.71;28.00
68859;BME280;55864;49.238;8.092;2022-07-24T10:39:37;99644.09;;;32.42;28.90
68859;BME280;55864;49.238;8.092;2022-07-24T10:41:39;99648.06;;;32.69;28.81
68859;BME280;55864;49.238;8.092;2022-07-24T10:43:39;99641.28;;;32.62;27.66
68859;BME280;55864;49.238;8.092;2022-07-24T10:45:41;99643.38;;;32.75;27.11